createdAt,value
2023-05-21T00:01:42.919Z,16.73
2023-05-21T00:04:12.032Z,16.71
2023-05-21T00:06:39.454Z,16.68
2023-05-21T00:09:06.980Z,16.66
2023-05-21T00:11:34.504Z,16.64
2023-05-21T00:14:01.810Z,16.62
2023-05-21T00:16:29.365Z,16.61
2023-05-21T00:18:58.437Z,16.59
2023-05-21T00:21:26.657Z,16.57
2023-05-21T00:23:57.477Z,16.55
2023-05-21T00:26:24.794Z,16.53
2023-05-21T00:28:53.869Z,16.50
2023-05-21T00:31:22.033Z,16.47
2023-05-21T00:33:49.413Z,16.44
2023-05-21T00:36:17.539Z,16.43
2023-05-21T00:38:46.118Z,16.39
2023-05-21T00:41:13.600Z,16.37
2023-05-21T00:43:41.454Z,16.33
2023-05-21T00:46:12.208Z,16.31
2023-05-21T00:48:39.856Z,16.27
2023-05-21T00:51:07.323Z,16.23
2023-05-21T00:53:37.773Z,16.18
2023-05-21T00:56:05.550Z,16.14
2023-05-21T00:58:33.742Z,16.10
2023-05-21T01:01:07.196Z,16.05
2023-05-21T01:03:38.898Z,16.01
2023-05-21T01:06:07.504Z,15.97
2023-05-21T01:08:36.415Z,15.94
2023-05-21T01:11:04.094Z,15.90
2023-05-21T01:13:31.643Z,15.88
2023-05-21T01:15:59.570Z,15.85
2023-05-21T01:18:27.098Z,15.82
2023-05-21T01:20:55.520Z,15.80
2023-05-21T01:23:22.996Z,15.79
2023-05-21T01:25:50.515Z,15.77
2023-05-21T01:28:17.855Z,15.76
2023-05-21T01:30:45.261Z,15.76
2023-05-21T01:33:17.657Z,15.76
2023-05-21T01:35:51.333Z,15.74
2023-05-21T01:38:31.491Z,15.73
2023-05-21T01:41:05.380Z,15.72
2023-05-21T01:43:34.902Z,15.70
2023-05-21T01:46:02.560Z,15.67
2023-05-21T01:48:30.411Z,15.63
2023-05-21T01:51:03.982Z,15.60
2023-05-21T01:53:31.497Z,15.56
2023-05-21T01:55:59.557Z,15.53
2023-05-21T01:58:27.048Z,15.50
2023-05-21T02:00:54.914Z,15.47
2023-05-21T02:03:23.419Z,15.43
2023-05-21T02:05:52.263Z,15.41
2023-05-21T02:08:20.471Z,15.40
2023-05-21T02:10:47.868Z,15.37
2023-05-21T02:13:16.160Z,15.34
2023-05-21T02:15:45.216Z,15.30
2023-05-21T02:18:17.075Z,15.25
2023-05-21T02:20:44.692Z,15.21
2023-05-21T02:23:12.281Z,15.18
2023-05-21T02:25:40.018Z,15.14
2023-05-21T02:28:08.330Z,15.11
2023-05-21T02:30:36.202Z,15.07
2023-05-21T02:33:03.709Z,15.03
2023-05-21T02:35:32.488Z,14.99
2023-05-21T02:38:03.205Z,14.97
2023-05-21T02:40:31.051Z,14.93
2023-05-21T02:42:58.457Z,14.91
2023-05-21T02:45:26.081Z,14.89
2023-05-21T02:47:53.693Z,14.87
2023-05-21T02:50:22.592Z,14.86
2023-05-21T02:52:59.971Z,14.84
2023-05-21T02:55:27.786Z,14.82
2023-05-21T02:57:55.159Z,14.79
2023-05-21T03:00:22.417Z,14.77
2023-05-21T03:02:49.969Z,14.76
2023-05-21T03:05:17.482Z,14.76
2023-05-21T03:07:44.997Z,14.76
2023-05-21T03:10:12.740Z,14.75
2023-05-21T03:12:40.033Z,14.73
2023-05-21T03:15:08.166Z,14.72
2023-05-21T03:17:35.578Z,14.71
2023-05-21T03:20:04.972Z,14.71
2023-05-21T03:22:32.638Z,14.69
2023-05-21T03:25:02.029Z,14.68
2023-05-21T03:27:29.468Z,14.67
2023-05-21T03:29:57.778Z,14.68
2023-05-21T03:32:25.464Z,14.68
2023-05-21T03:34:53.487Z,14.68
2023-05-21T03:37:21.005Z,14.69
2023-05-21T03:39:48.497Z,14.70
2023-05-21T03:42:16.152Z,14.69
2023-05-21T03:44:49.847Z,14.65
2023-05-21T03:47:46.163Z,14.63
2023-05-21T03:50:13.263Z,14.62
2023-05-21T03:52:40.171Z,14.62
2023-05-21T03:55:07.363Z,14.62
2023-05-21T03:57:34.262Z,14.61
2023-05-21T04:00:01.156Z,14.62
2023-05-21T04:02:28.280Z,14.60
2023-05-21T04:04:56.280Z,14.62
2023-05-21T04:07:24.889Z,14.64
2023-05-21T04:09:52.175Z,14.65
2023-05-21T04:12:20.571Z,14.67
2023-05-21T04:14:48.082Z,14.69
2023-05-21T04:17:15.401Z,14.70
2023-05-21T04:19:42.816Z,14.72
2023-05-21T04:22:11.393Z,14.75
2023-05-21T04:24:39.525Z,14.76
2023-05-21T04:27:34.841Z,14.77
2023-05-21T04:30:04.558Z,14.79
2023-05-21T04:32:35.171Z,14.81
2023-05-21T04:35:02.621Z,14.83
2023-05-21T04:37:31.688Z,14.84
2023-05-21T04:39:59.168Z,14.85
2023-05-21T04:42:26.643Z,14.86
2023-05-21T04:44:56.072Z,14.86
2023-05-21T04:47:23.448Z,14.87
2023-05-21T04:49:51.230Z,14.89
2023-05-21T04:52:18.846Z,14.91
2023-05-21T04:54:46.039Z,14.92
2023-05-21T04:57:12.892Z,14.92
2023-05-21T04:59:40.147Z,14.90
2023-05-21T05:02:07.163Z,14.89
2023-05-21T05:04:34.124Z,14.87
2023-05-21T05:07:01.895Z,14.89
2023-05-21T05:09:30.528Z,14.94
2023-05-21T05:11:57.990Z,15.01
2023-05-21T05:14:25.436Z,15.13
2023-05-21T05:16:54.712Z,15.27
2023-05-21T05:19:22.435Z,15.41
2023-05-21T05:21:50.013Z,15.55
2023-05-21T05:24:17.426Z,15.63
2023-05-21T05:26:45.854Z,15.65
2023-05-21T05:29:13.539Z,15.65
2023-05-21T05:31:41.055Z,15.68
2023-05-21T05:34:08.562Z,15.70
2023-05-21T05:36:36.053Z,15.72
2023-05-21T05:39:03.883Z,15.80
2023-05-21T05:41:31.343Z,15.86
2023-05-21T05:43:58.873Z,15.88
2023-05-21T05:46:29.415Z,15.89
2023-05-21T05:48:57.535Z,15.94
2023-05-21T05:51:24.895Z,15.97
2023-05-21T05:53:52.305Z,15.95
2023-05-21T05:56:19.796Z,15.91
2023-05-21T05:58:47.826Z,15.88
2023-05-21T06:01:16.723Z,15.84
2023-05-21T06:03:44.496Z,15.90
2023-05-21T06:06:15.183Z,16.07
2023-05-21T06:08:43.119Z,16.19
2023-05-21T06:11:11.652Z,16.23
2023-05-21T06:13:39.207Z,16.27
2023-05-21T06:16:07.853Z,16.29
2023-05-21T06:18:36.296Z,16.30
2023-05-21T06:21:03.799Z,16.32
2023-05-21T06:23:32.889Z,16.38
2023-05-21T06:26:00.971Z,16.44
2023-05-21T06:28:28.677Z,16.51
2023-05-21T06:30:56.314Z,16.51
2023-05-21T06:33:23.817Z,16.41
2023-05-21T06:35:51.628Z,16.33
2023-05-21T06:38:19.580Z,16.30
2023-05-21T06:40:48.194Z,16.26
2023-05-21T06:43:22.895Z,16.21
2023-05-21T06:46:09.198Z,16.12
2023-05-21T06:48:39.705Z,16.06
2023-05-21T06:51:07.110Z,16.01
2023-05-21T06:53:34.583Z,15.95
2023-05-21T06:56:02.135Z,15.82
2023-05-21T06:58:37.526Z,15.67
2023-05-21T07:01:05.208Z,15.55
2023-05-21T07:03:32.841Z,15.48
2023-05-21T07:06:00.406Z,15.45
2023-05-21T07:08:27.999Z,15.39
2023-05-21T07:10:56.742Z,15.37
2023-05-21T07:13:26.063Z,15.36
2023-05-21T07:15:53.705Z,15.33
2023-05-21T07:18:21.805Z,15.29
2023-05-21T07:20:49.584Z,15.26
2023-05-21T07:23:17.090Z,15.23
2023-05-21T07:25:44.729Z,15.17
2023-05-21T07:28:13.327Z,15.10
2023-05-21T07:30:40.900Z,15.01
2023-05-21T07:33:13.007Z,14.97
2023-05-21T07:35:41.286Z,14.95
2023-05-21T07:38:08.915Z,14.98
2023-05-21T07:40:36.613Z,15.04
2023-05-21T07:43:04.559Z,15.13
2023-05-21T07:45:32.263Z,15.21
2023-05-21T07:47:59.771Z,15.29
2023-05-21T07:50:27.359Z,15.34
2023-05-21T07:52:56.524Z,15.41
2023-05-21T07:55:27.965Z,15.46
2023-05-21T07:57:56.573Z,15.48
2023-05-21T08:00:28.594Z,15.53
2023-05-21T08:02:56.493Z,15.61
2023-05-21T08:05:25.952Z,15.72
2023-05-21T08:07:53.676Z,15.86
2023-05-21T08:10:21.627Z,16.00
2023-05-21T08:12:53.864Z,16.14
2023-05-21T08:15:21.807Z,16.27
2023-05-21T08:17:49.943Z,16.43
2023-05-21T08:20:18.023Z,16.60
2023-05-21T08:22:45.736Z,16.77
2023-05-21T08:25:13.264Z,16.92
2023-05-21T08:27:40.822Z,17.10
2023-05-21T08:30:11.813Z,17.25
2023-05-21T08:32:39.504Z,17.35
2023-05-21T08:35:08.643Z,17.44
2023-05-21T08:37:59.726Z,17.55
2023-05-21T08:40:46.571Z,17.67
2023-05-21T08:43:16.864Z,17.83
2023-05-21T08:45:54.703Z,18.02
2023-05-21T08:48:24.369Z,18.22
2023-05-21T08:50:53.068Z,18.34
2023-05-21T08:53:28.706Z,18.43
2023-05-21T08:55:57.669Z,18.51
2023-05-21T08:58:32.814Z,18.57
2023-05-21T09:01:00.582Z,18.59
2023-05-21T09:03:29.649Z,18.71
2023-05-21T09:05:57.906Z,18.89
2023-05-21T09:08:29.653Z,19.11
2023-05-21T09:11:20.037Z,19.35
2023-05-21T09:13:52.025Z,19.52
2023-05-21T09:16:24.467Z,19.60
2023-05-21T09:18:52.281Z,19.64
2023-05-21T09:21:27.982Z,19.65
2023-05-21T09:23:59.425Z,19.72
2023-05-21T09:26:27.024Z,19.78
2023-05-21T09:29:00.707Z,19.72
2023-05-21T09:31:28.402Z,19.73
2023-05-21T09:33:55.980Z,19.80
2023-05-21T09:36:24.406Z,19.91
2023-05-21T09:38:54.609Z,20.01
2023-05-21T09:41:27.060Z,20.04
2023-05-21T09:44:02.046Z,20.03
2023-05-21T09:46:42.854Z,19.99
2023-05-21T09:49:26.586Z,19.95
2023-05-21T09:51:58.763Z,19.88
2023-05-21T09:54:35.970Z,19.88
2023-05-21T09:57:03.565Z,19.95
2023-05-21T09:59:39.278Z,20.03
2023-05-21T10:02:24.157Z,20.04
2023-05-21T10:04:53.100Z,20.04
2023-05-21T10:07:27.963Z,20.07
2023-05-21T10:09:58.842Z,20.13
2023-05-21T10:12:26.475Z,20.13
2023-05-21T10:15:08.261Z,20.16
2023-05-21T10:17:35.905Z,20.29
2023-05-21T10:20:05.225Z,20.40
2023-05-21T10:22:32.703Z,20.40
2023-05-21T10:25:00.423Z,20.44
2023-05-21T10:27:28.834Z,20.41
2023-05-21T10:29:58.209Z,20.37
2023-05-21T10:32:27.026Z,20.43
2023-05-21T10:34:54.577Z,20.43
2023-05-21T10:37:24.442Z,20.59
2023-05-21T10:39:55.916Z,20.96
2023-05-21T10:42:32.566Z,21.34
2023-05-21T10:45:32.865Z,21.67
2023-05-21T10:48:19.542Z,21.85
2023-05-21T10:50:51.469Z,22.16
2023-05-21T10:53:41.801Z,22.40
2023-05-21T10:56:40.356Z,22.54
2023-05-21T11:55:57.819Z,22.80
2023-05-21T11:58:25.478Z,22.96
2023-05-21T12:00:53.559Z,23.05
2023-05-21T12:03:27.184Z,23.10
2023-05-21T12:05:55.057Z,23.25
2023-05-21T12:08:27.992Z,23.40
2023-05-21T12:11:02.002Z,23.58
2023-05-21T12:13:29.429Z,23.72
2023-05-21T12:15:57.000Z,23.74
2023-05-21T12:18:25.310Z,23.80
2023-05-21T12:20:52.666Z,23.82
2023-05-21T12:23:21.601Z,23.71
2023-05-21T12:25:48.917Z,23.74
2023-05-21T12:28:16.293Z,23.87
2023-05-21T12:30:43.830Z,24.02
2023-05-21T12:33:12.368Z,24.07
2023-05-21T12:35:39.838Z,24.07
2023-05-21T12:38:09.928Z,24.00
2023-05-21T12:40:39.027Z,23.84
2023-05-21T12:43:07.391Z,23.59
2023-05-21T12:45:34.798Z,23.38
2023-05-21T12:48:02.851Z,23.12
2023-05-21T12:50:30.445Z,22.93
2023-05-21T12:52:58.443Z,22.79
2023-05-21T12:55:28.883Z,22.66
2023-05-21T12:58:04.653Z,22.55
2023-05-21T13:00:32.364Z,22.38
2023-05-21T13:03:01.320Z,22.20
2023-05-21T13:05:28.767Z,22.05
2023-05-21T13:07:56.176Z,21.90
2023-05-21T13:10:23.728Z,21.76
2023-05-21T13:12:51.277Z,21.65
2023-05-21T13:15:19.278Z,21.57
2023-05-21T13:17:49.154Z,21.61
2023-05-21T13:20:22.110Z,21.87
2023-05-21T13:22:51.095Z,22.38
2023-05-21T13:25:25.005Z,22.96
2023-05-21T13:27:52.932Z,23.51
2023-05-21T13:30:21.322Z,24.03
2023-05-21T13:32:48.868Z,24.52
2023-05-21T13:35:17.255Z,25.01
2023-05-21T13:37:44.894Z,25.50
2023-05-21T13:40:16.847Z,26.00
2023-05-21T13:42:45.739Z,26.51
2023-05-21T13:45:14.693Z,26.98
2023-05-21T13:47:43.497Z,27.34
2023-05-21T13:50:11.604Z,27.42
2023-05-21T13:52:39.010Z,27.35
2023-05-21T13:55:06.960Z,27.61
2023-05-21T13:57:34.452Z,27.68
2023-05-21T14:00:01.887Z,27.49
2023-05-21T14:02:35.337Z,27.26
2023-05-21T14:05:02.787Z,26.89
2023-05-21T14:07:30.175Z,26.43
2023-05-21T14:09:57.574Z,26.15
2023-05-21T14:12:24.888Z,25.71
2023-05-21T14:14:52.142Z,25.17
2023-05-21T14:17:19.398Z,24.64
2023-05-21T14:19:48.208Z,24.15
2023-05-21T14:22:15.762Z,23.75
2023-05-21T14:24:43.179Z,23.36
2023-05-21T14:27:10.752Z,22.98
2023-05-21T14:29:39.056Z,22.61
2023-05-21T14:32:07.752Z,22.18
2023-05-21T14:34:35.279Z,21.73
2023-05-21T14:37:02.770Z,21.37
2023-05-21T14:39:30.203Z,20.99
2023-05-21T14:41:57.760Z,20.62
2023-05-21T14:44:25.135Z,20.28
2023-05-21T14:46:52.633Z,19.96
2023-05-21T14:49:20.128Z,19.64
2023-05-21T14:51:47.878Z,19.41
2023-05-21T14:54:15.187Z,19.20
2023-05-21T14:56:42.672Z,19.02
2023-05-21T14:59:13.084Z,18.87
2023-05-21T15:01:40.506Z,18.74
2023-05-21T15:04:08.223Z,18.71
2023-05-21T15:06:35.841Z,18.65
2023-05-21T15:09:03.427Z,18.63
2023-05-21T15:11:30.954Z,18.59
2023-05-21T15:13:58.559Z,18.57
2023-05-21T15:16:26.118Z,18.55
2023-05-21T15:18:53.659Z,18.48
2023-05-21T15:21:21.056Z,18.39
2023-05-21T15:23:48.528Z,18.35
2023-05-21T15:26:15.889Z,18.33
2023-05-21T15:28:43.751Z,18.27
2023-05-21T15:31:11.562Z,18.23
2023-05-21T15:33:38.949Z,18.21
2023-05-21T15:36:06.783Z,18.24
2023-05-21T15:38:34.021Z,18.28
2023-05-21T15:41:01.576Z,18.30
2023-05-21T15:43:28.984Z,18.29
2023-05-21T15:45:56.233Z,18.21
2023-05-21T15:48:23.631Z,18.08
2023-05-21T15:50:51.167Z,17.93
2023-05-21T15:53:18.482Z,17.80
2023-05-21T15:55:45.912Z,17.69
2023-05-21T15:58:13.352Z,17.62
2023-05-21T16:00:40.935Z,17.57
2023-05-21T16:03:08.634Z,17.50
2023-05-21T16:05:36.181Z,17.39
2023-05-21T16:08:04.246Z,17.25
2023-05-21T16:10:31.758Z,17.07
2023-05-21T16:12:59.455Z,16.93
2023-05-21T16:15:28.704Z,16.75
2023-05-21T16:17:56.375Z,16.60
2023-05-21T16:20:23.906Z,16.49
2023-05-21T16:22:51.298Z,16.43
2023-05-21T16:25:18.911Z,16.42
2023-05-21T16:27:48.019Z,16.42
2023-05-21T16:30:15.549Z,16.43
2023-05-21T16:32:43.107Z,16.46
2023-05-21T16:35:10.676Z,16.47
2023-05-21T16:37:38.224Z,16.49
2023-05-21T16:40:07.076Z,16.52
2023-05-21T16:42:34.386Z,16.54
2023-05-21T16:45:02.016Z,16.57
2023-05-21T16:47:29.737Z,16.59
2023-05-21T16:49:58.775Z,16.60
2023-05-21T16:52:26.615Z,16.58
2023-05-21T16:54:54.029Z,16.55
2023-05-21T16:57:21.830Z,16.52
2023-05-21T16:59:49.589Z,16.50
2023-05-21T17:02:17.540Z,16.48
2023-05-21T17:04:46.416Z,16.44
2023-05-21T17:07:18.043Z,16.43
2023-05-21T17:09:46.945Z,16.42
2023-05-21T17:12:14.775Z,16.42
2023-05-21T17:14:42.720Z,16.41
2023-05-21T17:17:10.482Z,16.41
2023-05-21T17:19:39.174Z,16.41
2023-05-21T17:22:06.735Z,16.42
2023-05-21T17:24:34.187Z,16.41
2023-05-21T17:27:01.553Z,16.40
2023-05-21T17:29:28.887Z,16.35
2023-05-21T17:31:56.413Z,16.31
2023-05-21T17:34:26.870Z,16.27
2023-05-21T17:36:54.234Z,16.23
2023-05-21T17:39:21.797Z,16.19
2023-05-21T17:41:49.401Z,16.15
2023-05-21T17:44:17.487Z,16.10
2023-05-21T17:46:45.678Z,16.05
2023-05-21T17:49:13.184Z,16.03
2023-05-21T17:51:40.857Z,16.00
2023-05-21T17:54:08.289Z,15.97
2023-05-21T17:56:39.265Z,15.96
2023-05-21T17:59:07.107Z,15.97
2023-05-21T18:01:35.300Z,15.97
2023-05-21T18:04:03.590Z,15.96
2023-05-21T18:06:31.521Z,15.94
2023-05-21T18:08:59.191Z,15.89
2023-05-21T18:11:26.749Z,15.81
2023-05-21T18:13:54.628Z,15.76
2023-05-21T18:16:22.300Z,15.70
2023-05-21T18:18:49.816Z,15.66
2023-05-21T18:21:17.546Z,15.61
2023-05-21T18:23:45.262Z,15.59
2023-05-21T18:26:12.767Z,15.58
2023-05-21T18:28:40.465Z,15.57
2023-05-21T18:31:08.297Z,15.55
2023-05-21T18:33:35.908Z,15.55
2023-05-21T18:36:03.320Z,15.53
2023-05-21T18:38:32.892Z,15.53
2023-05-21T18:41:01.889Z,15.52
2023-05-21T18:43:29.235Z,15.52
2023-05-21T18:45:56.630Z,15.52
2023-05-21T18:48:24.152Z,15.51
2023-05-21T18:50:51.550Z,15.50
2023-05-21T18:53:18.863Z,15.50
2023-05-21T18:55:46.537Z,15.49
2023-05-21T18:58:14.088Z,15.49
2023-05-21T19:00:42.789Z,15.48
2023-05-21T19:03:10.203Z,15.47
2023-05-21T19:05:37.824Z,15.46
2023-05-21T19:08:06.102Z,15.45
2023-05-21T19:10:33.433Z,15.45
2023-05-21T19:13:01.075Z,15.45
2023-05-21T19:15:28.654Z,15.46
2023-05-21T19:17:56.277Z,15.49
2023-05-21T19:20:24.476Z,15.51
2023-05-21T19:22:52.271Z,15.52
2023-05-21T19:25:19.783Z,15.51
2023-05-21T19:27:47.258Z,15.48
2023-05-21T19:30:14.801Z,15.46
2023-05-21T19:32:42.364Z,15.45
2023-05-21T19:35:11.175Z,15.46
2023-05-21T19:37:38.811Z,15.47
2023-05-21T19:40:09.128Z,15.48
2023-05-21T19:42:37.224Z,15.48
2023-05-21T19:45:09.725Z,15.47
2023-05-21T19:47:37.294Z,15.44
2023-05-21T19:50:05.337Z,15.43
2023-05-21T19:52:32.848Z,15.41
2023-05-21T19:55:05.056Z,15.40
2023-05-21T19:57:32.778Z,15.39
2023-05-21T20:00:00.638Z,15.38
2023-05-21T20:02:29.076Z,15.37
2023-05-21T20:04:58.060Z,15.36
2023-05-21T20:07:25.853Z,15.35
2023-05-21T20:09:53.540Z,15.33
2023-05-21T20:12:22.150Z,15.33
2023-05-21T20:14:50.120Z,15.35
2023-05-21T20:17:19.523Z,15.34
2023-05-21T20:19:50.733Z,15.33
2023-05-21T20:22:18.312Z,15.31
2023-05-21T20:24:46.090Z,15.29
2023-05-21T20:27:15.027Z,15.29
2023-05-21T20:29:43.258Z,15.30
2023-05-21T20:32:10.579Z,15.29
2023-05-21T20:34:44.577Z,15.29
2023-05-21T20:37:18.018Z,15.31
2023-05-21T20:39:45.515Z,15.32
2023-05-21T20:42:15.229Z,15.32
2023-05-21T20:44:45.432Z,15.30
2023-05-21T20:47:14.013Z,15.27
2023-05-21T20:49:41.559Z,15.26
2023-05-21T20:52:08.976Z,15.22
2023-05-21T20:54:36.417Z,15.19
2023-05-21T20:57:06.235Z,15.19
2023-05-21T20:59:33.609Z,15.20
2023-05-21T21:02:01.139Z,15.22
2023-05-21T21:04:28.488Z,15.23
2023-05-21T21:06:55.852Z,15.20
2023-05-21T21:09:23.243Z,15.20
2023-05-21T21:11:50.510Z,15.19
2023-05-21T21:14:18.279Z,15.17
2023-05-21T21:16:45.742Z,15.15
2023-05-21T21:19:13.176Z,15.14
2023-05-21T21:21:40.515Z,15.13
2023-05-21T21:24:08.099Z,15.12
2023-05-21T21:26:35.640Z,15.11
2023-05-21T21:29:03.147Z,15.11
2023-05-21T21:31:30.598Z,15.10
2023-05-21T21:33:58.304Z,15.11
2023-05-21T21:36:25.884Z,15.09
2023-05-21T21:38:53.157Z,15.06
2023-05-21T21:41:22.165Z,15.03
2023-05-21T21:43:49.524Z,15.00
2023-05-21T21:46:17.061Z,14.98
2023-05-21T21:48:44.767Z,14.96
2023-05-21T21:51:12.198Z,14.97
2023-05-21T21:53:39.701Z,14.96
2023-05-21T21:56:07.283Z,14.95
2023-05-21T21:58:34.751Z,14.95
2023-05-21T22:01:02.115Z,14.93
2023-05-21T22:03:32.510Z,14.91
2023-05-21T22:05:59.965Z,14.89
2023-05-21T22:08:28.999Z,14.85
2023-05-21T22:10:56.457Z,14.82
2023-05-21T22:13:24.828Z,14.78
2023-05-21T22:15:52.195Z,14.76
2023-05-21T22:18:31.958Z,14.75
2023-05-21T22:21:09.912Z,14.71
2023-05-21T22:23:37.997Z,14.67
2023-05-21T22:26:06.373Z,14.62
2023-05-21T22:28:34.118Z,14.60
2023-05-21T22:31:02.218Z,14.58
2023-05-21T22:33:29.697Z,14.57
2023-05-21T22:35:57.151Z,14.56
2023-05-21T22:38:25.157Z,14.57
2023-05-21T22:40:52.564Z,14.56
2023-05-21T22:43:20.227Z,14.56
2023-05-21T22:45:47.747Z,14.54
2023-05-21T22:48:18.361Z,14.52
2023-05-21T22:50:46.379Z,14.48
2023-05-21T22:53:13.950Z,14.45
2023-05-21T22:55:41.616Z,14.41
2023-05-21T22:58:08.882Z,14.37
2023-05-21T23:00:36.354Z,14.35
2023-05-21T23:03:04.296Z,14.31
2023-05-21T23:05:31.729Z,14.27
2023-05-21T23:07:59.241Z,14.25
2023-05-21T23:10:26.748Z,14.23
2023-05-21T23:12:54.440Z,14.20
2023-05-21T23:15:21.991Z,14.19
2023-05-21T23:17:49.518Z,14.17
2023-05-21T23:20:17.643Z,14.18
2023-05-21T23:22:45.535Z,14.18
2023-05-21T23:25:12.831Z,14.16
2023-05-21T23:27:40.247Z,14.14
2023-05-21T23:30:09.046Z,14.12
2023-05-21T23:32:36.465Z,14.09
2023-05-21T23:35:04.157Z,14.07
2023-05-21T23:37:31.486Z,14.10
2023-05-21T23:39:58.965Z,14.10
2023-05-21T23:42:26.516Z,14.09
2023-05-21T23:44:53.880Z,14.07
2023-05-21T23:47:21.165Z,14.07
2023-05-21T23:49:48.572Z,14.07
2023-05-21T23:52:18.546Z,14.06
2023-05-21T23:54:46.190Z,14.06
2023-05-21T23:57:13.822Z,14.05
2023-05-21T23:59:41.334Z,14.05
